sensor_id;sensor_type;location;lat;lon;timestamp;P1;durP1;ratioP1;P2;durP2;ratioP2
6955;SDS011;50345;51.136;16.886;2023-07-31T00:00:14;9.82;;;5.60;;
6955;SDS011;50345;51.136;16.886;2023-07-31T00:02:41;4.90;;;4.38;;
6955;SDS011;50345;51.136;16.886;2023-07-31T00:05:08;6.43;;;4.57;;
6955;SDS011;50345;51.136;16.886;2023-07-31T00:07:34;6.22;;;5.47;;
6955;SDS011;50345;51.136;16.886;2023-07-31T00:10:01;3.85;;;3.55;;
6955;SDS011;50345;51.136;16.886;2023-07-31T00:12:27;7.03;;;3.83;;
6955;SDS011;50345;51.136;16.886;2023-07-31T00:14:53;10.27;;;4.65;;
6955;SDS011;50345;51.136;16.886;2023-07-31T00:17:19;5.23;;;3.23;;
6955;SDS011;50345;51.136;16.886;2023-07-31T00:19:45;5.32;;;3.33;;
6955;SDS011;50345;51.136;16.886;2023-07-31T00:22:14;3.58;;;2.90;;
6955;SDS011;50345;51.136;16.886;2023-07-31T00:24:40;4.63;;;3.00;;
6955;SDS011;50345;51.136;16.886;2023-07-31T00:27:06;5.25;;;3.20;;
6955;SDS011;50345;51.136;16.886;2023-07-31T00:29:32;3.58;;;2.70;;
6955;SDS011;50345;51.136;16.886;2023-07-31T00:31:58;3.80;;;3.20;;
6955;SDS011;50345;51.136;16.886;2023-07-31T00:34:24;7.20;;;4.22;;
6955;SDS011;50345;51.136;16.886;2023-07-31T00:36:50;6.60;;;4.20;;
6955;SDS011;50345;51.136;16.886;2023-07-31T00:39:16;11.00;;;5.95;;
6955;SDS011;50345;51.136;16.886;2023-07-31T00:41:42;5.68;;;3.75;;
6955;SDS011;50345;51.136;16.886;2023-07-31T00:44:08;5.47;;;3.25;;
6955;SDS011;50345;51.136;16.886;2023-07-31T00:46:34;3.88;;;3.45;;
6955;SDS011;50345;51.136;16.886;2023-07-31T00:49:00;5.72;;;3.47;;
6955;SDS011;50345;51.136;16.886;2023-07-31T00:51:26;5.63;;;3.58;;
6955;SDS011;50345;51.136;16.886;2023-07-31T00:53:52;4.50;;;3.92;;
6955;SDS011;50345;51.136;16.886;2023-07-31T00:56:22;7.55;;;6.63;;
6955;SDS011;50345;51.136;16.886;2023-07-31T00:58:48;5.47;;;4.38;;
6955;SDS011;50345;51.136;16.886;2023-07-31T01:01:14;7.53;;;5.40;;
6955;SDS011;50345;51.136;16.886;2023-07-31T01:03:40;8.95;;;6.03;;
6955;SDS011;50345;51.136;16.886;2023-07-31T01:06:17;8.27;;;5.55;;
6955;SDS011;50345;51.136;16.886;2023-07-31T01:08:58;5.35;;;4.85;;
6955;SDS011;50345;51.136;16.886;2023-07-31T01:11:28;12.57;;;4.10;;
6955;SDS011;50345;51.136;16.886;2023-07-31T01:13:55;4.85;;;4.30;;
6955;SDS011;50345;51.136;16.886;2023-07-31T01:16:21;4.75;;;3.45;;
6955;SDS011;50345;51.136;16.886;2023-07-31T01:18:47;5.50;;;3.80;;
6955;SDS011;50345;51.136;16.886;2023-07-31T01:24:11;7.80;;;5.90;;
6955;SDS011;50345;51.136;16.886;2023-07-31T01:26:41;8.55;;;5.57;;
6955;SDS011;50345;51.136;16.886;2023-07-31T01:31:38;8.63;;;5.20;;
6955;SDS011;50345;51.136;16.886;2023-07-31T01:34:05;5.90;;;5.40;;
6955;SDS011;50345;51.136;16.886;2023-07-31T01:36:31;5.05;;;4.05;;
6955;SDS011;50345;51.136;16.886;2023-07-31T01:38:58;10.20;;;4.72;;
6955;SDS011;50345;51.136;16.886;2023-07-31T01:41:25;3.45;;;3.15;;
6955;SDS011;50345;51.136;16.886;2023-07-31T01:43:51;6.22;;;3.42;;
6955;SDS011;50345;51.136;16.886;2023-07-31T01:46:17;5.03;;;3.33;;
6955;SDS011;50345;51.136;16.886;2023-07-31T01:48:43;7.78;;;3.25;;
6955;SDS011;50345;51.136;16.886;2023-07-31T01:51:09;7.05;;;4.68;;
6955;SDS011;50345;51.136;16.886;2023-07-31T01:53:35;5.20;;;3.87;;
6955;SDS011;50345;51.136;16.886;2023-07-31T01:56:01;10.95;;;4.72;;
6955;SDS011;50345;51.136;16.886;2023-07-31T01:58:27;6.85;;;4.05;;
6955;SDS011;50345;51.136;16.886;2023-07-31T02:00:53;6.43;;;4.45;;
6955;SDS011;50345;51.136;16.886;2023-07-31T02:03:19;5.97;;;4.15;;
6955;SDS011;50345;51.136;16.886;2023-07-31T02:05:45;8.38;;;4.28;;
6955;SDS011;50345;51.136;16.886;2023-07-31T02:08:11;7.18;;;4.28;;
6955;SDS011;50345;51.136;16.886;2023-07-31T02:10:37;7.00;;;4.45;;
6955;SDS011;50345;51.136;16.886;2023-07-31T02:13:03;9.15;;;4.22;;
6955;SDS011;50345;51.136;16.886;2023-07-31T02:15:30;9.50;;;4.55;;
6955;SDS011;50345;51.136;16.886;2023-07-31T02:17:56;7.97;;;3.08;;
6955;SDS011;50345;51.136;16.886;2023-07-31T02:20:22;4.05;;;3.10;;
6955;SDS011;50345;51.136;16.886;2023-07-31T02:22:48;4.22;;;3.45;;
6955;SDS011;50345;51.136;16.886;2023-07-31T02:25:14;7.82;;;4.85;;
6955;SDS011;50345;51.136;16.886;2023-07-31T02:27:40;5.07;;;4.55;;
6955;SDS011;50345;51.136;16.886;2023-07-31T02:30:06;10.57;;;6.00;;
6955;SDS011;50345;51.136;16.886;2023-07-31T02:32:32;7.90;;;3.72;;
6955;SDS011;50345;51.136;16.886;2023-07-31T02:34:58;13.15;;;5.38;;
6955;SDS011;50345;51.136;16.886;2023-07-31T02:37:25;8.35;;;4.20;;
6955;SDS011;50345;51.136;16.886;2023-07-31T02:39:51;8.00;;;3.95;;
6955;SDS011;50345;51.136;16.886;2023-07-31T02:42:17;11.55;;;6.32;;
6955;SDS011;50345;51.136;16.886;2023-07-31T02:44:43;8.82;;;5.03;;
6955;SDS011;50345;51.136;16.886;2023-07-31T02:47:09;10.10;;;3.70;;
6955;SDS011;50345;51.136;16.886;2023-07-31T02:49:35;3.40;;;3.10;;
6955;SDS011;50345;51.136;16.886;2023-07-31T02:52:01;3.78;;;3.38;;
6955;SDS011;50345;51.136;16.886;2023-07-31T02:54:27;7.70;;;2.83;;
6955;SDS011;50345;51.136;16.886;2023-07-31T02:56:53;5.65;;;2.97;;
6955;SDS011;50345;51.136;16.886;2023-07-31T02:59:20;10.10;;;4.53;;
6955;SDS011;50345;51.136;16.886;2023-07-31T03:01:46;13.93;;;4.72;;
6955;SDS011;50345;51.136;16.886;2023-07-31T03:04:12;8.88;;;5.28;;
6955;SDS011;50345;51.136;16.886;2023-07-31T03:06:38;11.38;;;5.72;;
6955;SDS011;50345;51.136;16.886;2023-07-31T03:09:04;9.20;;;5.60;;
6955;SDS011;50345;51.136;16.886;2023-07-31T03:11:30;10.47;;;5.63;;
6955;SDS011;50345;51.136;16.886;2023-07-31T03:13:56;7.22;;;5.60;;
6955;SDS011;50345;51.136;16.886;2023-07-31T03:16:22;7.05;;;4.80;;
6955;SDS011;50345;51.136;16.886;2023-07-31T03:18:48;7.57;;;5.77;;
6955;SDS011;50345;51.136;16.886;2023-07-31T03:21:14;5.80;;;4.22;;
6955;SDS011;50345;51.136;16.886;2023-07-31T03:23:40;12.52;;;3.85;;
6955;SDS011;50345;51.136;16.886;2023-07-31T03:26:08;12.02;;;5.05;;
6955;SDS011;50345;51.136;16.886;2023-07-31T03:28:34;4.53;;;3.60;;
6955;SDS011;50345;51.136;16.886;2023-07-31T03:31:00;5.90;;;3.87;;
6955;SDS011;50345;51.136;16.886;2023-07-31T03:33:26;9.65;;;5.35;;
6955;SDS011;50345;51.136;16.886;2023-07-31T03:35:52;10.57;;;5.80;;
6955;SDS011;50345;51.136;16.886;2023-07-31T03:38:18;8.15;;;7.20;;
6955;SDS011;50345;51.136;16.886;2023-07-31T03:40:44;14.00;;;7.63;;
6955;SDS011;50345;51.136;16.886;2023-07-31T03:43:11;8.85;;;6.43;;
6955;SDS011;50345;51.136;16.886;2023-07-31T03:45:37;8.57;;;4.25;;
6955;SDS011;50345;51.136;16.886;2023-07-31T03:48:03;13.38;;;5.25;;
6955;SDS011;50345;51.136;16.886;2023-07-31T03:50:29;8.07;;;3.92;;
6955;SDS011;50345;51.136;16.886;2023-07-31T03:52:55;5.78;;;2.72;;
6955;SDS011;50345;51.136;16.886;2023-07-31T03:55:21;7.33;;;2.67;;
6955;SDS011;50345;51.136;16.886;2023-07-31T03:57:47;6.47;;;3.95;;
6955;SDS011;50345;51.136;16.886;2023-07-31T04:00:14;6.50;;;2.80;;
6955;SDS011;50345;51.136;16.886;2023-07-31T04:02:40;9.73;;;2.58;;
6955;SDS011;50345;51.136;16.886;2023-07-31T04:05:06;6.05;;;2.60;;
6955;SDS011;50345;51.136;16.886;2023-07-31T04:07:32;4.90;;;2.65;;
6955;SDS011;50345;51.136;16.886;2023-07-31T04:09:59;8.20;;;2.45;;
6955;SDS011;50345;51.136;16.886;2023-07-31T04:12:25;3.22;;;2.55;;
6955;SDS011;50345;51.136;16.886;2023-07-31T04:14:51;4.47;;;2.10;;
6955;SDS011;50345;51.136;16.886;2023-07-31T04:17:17;5.65;;;2.63;;
6955;SDS011;50345;51.136;16.886;2023-07-31T04:19:44;11.57;;;2.85;;
6955;SDS011;50345;51.136;16.886;2023-07-31T04:22:09;2.70;;;2.50;;
6955;SDS011;50345;51.136;16.886;2023-07-31T04:24:35;3.53;;;2.53;;
6955;SDS011;50345;51.136;16.886;2023-07-31T04:27:02;3.22;;;2.90;;
6955;SDS011;50345;51.136;16.886;2023-07-31T04:29:28;3.83;;;3.10;;
6955;SDS011;50345;51.136;16.886;2023-07-31T04:31:54;8.95;;;2.72;;
6955;SDS011;50345;51.136;16.886;2023-07-31T04:34:20;5.03;;;2.23;;
6955;SDS011;50345;51.136;16.886;2023-07-31T04:36:46;6.70;;;2.70;;
6955;SDS011;50345;51.136;16.886;2023-07-31T04:39:12;6.35;;;3.38;;
6955;SDS011;50345;51.136;16.886;2023-07-31T04:41:38;8.63;;;3.00;;
6955;SDS011;50345;51.136;16.886;2023-07-31T04:44:04;6.57;;;3.10;;
6955;SDS011;50345;51.136;16.886;2023-07-31T04:46:30;5.43;;;2.67;;
6955;SDS011;50345;51.136;16.886;2023-07-31T04:48:56;8.17;;;2.93;;
6955;SDS011;50345;51.136;16.886;2023-07-31T04:51:22;8.02;;;2.97;;
6955;SDS011;50345;51.136;16.886;2023-07-31T04:53:48;8.00;;;3.17;;
6955;SDS011;50345;51.136;16.886;2023-07-31T04:56:15;5.10;;;2.92;;
6955;SDS011;50345;51.136;16.886;2023-07-31T04:58:41;11.20;;;3.97;;
6955;SDS011;50345;51.136;16.886;2023-07-31T05:01:07;6.70;;;4.05;;
6955;SDS011;50345;51.136;16.886;2023-07-31T05:03:33;4.53;;;3.65;;
6955;SDS011;50345;51.136;16.886;2023-07-31T05:05:59;4.90;;;3.35;;
6955;SDS011;50345;51.136;16.886;2023-07-31T05:08:25;6.73;;;3.67;;
6955;SDS011;50345;51.136;16.886;2023-07-31T05:10:51;3.53;;;3.23;;
6955;SDS011;50345;51.136;16.886;2023-07-31T05:13:17;5.07;;;3.50;;
6955;SDS011;50345;51.136;16.886;2023-07-31T05:15:43;9.90;;;4.20;;
6955;SDS011;50345;51.136;16.886;2023-07-31T05:18:09;8.67;;;3.67;;
6955;SDS011;50345;51.136;16.886;2023-07-31T05:20:35;5.27;;;3.33;;
6955;SDS011;50345;51.136;16.886;2023-07-31T05:23:01;3.50;;;3.17;;
6955;SDS011;50345;51.136;16.886;2023-07-31T05:25:27;5.20;;;3.70;;
6955;SDS011;50345;51.136;16.886;2023-07-31T05:27:53;4.90;;;3.37;;
6955;SDS011;50345;51.136;16.886;2023-07-31T05:30:19;5.10;;;2.97;;
6955;SDS011;50345;51.136;16.886;2023-07-31T05:32:46;4.70;;;3.50;;
6955;SDS011;50345;51.136;16.886;2023-07-31T05:35:12;4.33;;;2.73;;
6955;SDS011;50345;51.136;16.886;2023-07-31T05:37:38;8.93;;;3.63;;
6955;SDS011;50345;51.136;16.886;2023-07-31T05:40:04;6.73;;;3.20;;
6955;SDS011;50345;51.136;16.886;2023-07-31T05:42:30;3.60;;;3.03;;
6955;SDS011;50345;51.136;16.886;2023-07-31T05:44:56;5.10;;;3.77;;
6955;SDS011;50345;51.136;16.886;2023-07-31T05:47:22;7.50;;;3.33;;
6955;SDS011;50345;51.136;16.886;2023-07-31T05:49:49;4.13;;;3.00;;
6955;SDS011;50345;51.136;16.886;2023-07-31T05:52:17;4.90;;;3.27;;
6955;SDS011;50345;51.136;16.886;2023-07-31T05:54:44;5.77;;;2.90;;
6955;SDS011;50345;51.136;16.886;2023-07-31T05:57:11;6.53;;;2.57;;
6955;SDS011;50345;51.136;16.886;2023-07-31T05:59:37;9.50;;;2.77;;
6955;SDS011;50345;51.136;16.886;2023-07-31T06:02:03;2.43;;;2.23;;
6955;SDS011;50345;51.136;16.886;2023-07-31T06:04:29;2.90;;;2.00;;
6955;SDS011;50345;51.136;16.886;2023-07-31T06:06:56;3.40;;;2.50;;
6955;SDS011;50345;51.136;16.886;2023-07-31T06:09:22;3.90;;;2.50;;
6955;SDS011;50345;51.136;16.886;2023-07-31T06:11:48;2.50;;;2.27;;
6955;SDS011;50345;51.136;16.886;2023-07-31T06:14:14;4.17;;;2.47;;
6955;SDS011;50345;51.136;16.886;2023-07-31T06:16:40;5.10;;;2.63;;
6955;SDS011;50345;51.136;16.886;2023-07-31T06:19:06;3.23;;;2.27;;
6955;SDS011;50345;51.136;16.886;2023-07-31T06:21:33;6.43;;;2.03;;
6955;SDS011;50345;51.136;16.886;2023-07-31T06:24:00;3.23;;;2.90;;
6955;SDS011;50345;51.136;16.886;2023-07-31T06:26:26;3.50;;;1.90;;
6955;SDS011;50345;51.136;16.886;2023-07-31T06:28:52;3.40;;;1.70;;
6955;SDS011;50345;51.136;16.886;2023-07-31T06:31:18;4.17;;;2.50;;
6955;SDS011;50345;51.136;16.886;2023-07-31T06:33:47;5.90;;;2.57;;
6955;SDS011;50345;51.136;16.886;2023-07-31T06:36:14;2.27;;;2.07;;
6955;SDS011;50345;51.136;16.886;2023-07-31T06:38:41;3.83;;;2.10;;
6955;SDS011;50345;51.136;16.886;2023-07-31T06:41:07;2.63;;;2.07;;
6955;SDS011;50345;51.136;16.886;2023-07-31T06:43:34;2.77;;;1.80;;
6955;SDS011;50345;51.136;16.886;2023-07-31T06:46:04;7.10;;;2.43;;
6955;SDS011;50345;51.136;16.886;2023-07-31T06:48:30;8.40;;;2.40;;
6955;SDS011;50345;51.136;16.886;2023-07-31T06:50:56;2.43;;;2.00;;
6955;SDS011;50345;51.136;16.886;2023-07-31T06:53:22;7.80;;;2.57;;
6955;SDS011;50345;51.136;16.886;2023-07-31T06:55:48;1.93;;;1.73;;
6955;SDS011;50345;51.136;16.886;2023-07-31T06:58:16;3.10;;;1.60;;
6955;SDS011;50345;51.136;16.886;2023-07-31T07:00:42;4.00;;;2.03;;
6955;SDS011;50345;51.136;16.886;2023-07-31T07:03:09;4.30;;;2.80;;
6955;SDS011;50345;51.136;16.886;2023-07-31T07:05:35;8.03;;;2.27;;
6955;SDS011;50345;51.136;16.886;2023-07-31T07:08:01;6.97;;;2.83;;
6955;SDS011;50345;51.136;16.886;2023-07-31T07:10:27;2.67;;;2.47;;
6955;SDS011;50345;51.136;16.886;2023-07-31T07:12:53;3.90;;;2.17;;
6955;SDS011;50345;51.136;16.886;2023-07-31T07:15:20;2.23;;;2.03;;
6955;SDS011;50345;51.136;16.886;2023-07-31T07:17:46;2.63;;;2.07;;
6955;SDS011;50345;51.136;16.886;2023-07-31T07:20:12;4.87;;;2.90;;
6955;SDS011;50345;51.136;16.886;2023-07-31T07:22:38;2.67;;;1.73;;
6955;SDS011;50345;51.136;16.886;2023-07-31T07:25:06;2.40;;;1.93;;
6955;SDS011;50345;51.136;16.886;2023-07-31T07:27:32;4.87;;;1.80;;
6955;SDS011;50345;51.136;16.886;2023-07-31T07:29:58;3.33;;;2.03;;
6955;SDS011;50345;51.136;16.886;2023-07-31T07:32:24;5.40;;;2.03;;
6955;SDS011;50345;51.136;16.886;2023-07-31T07:34:51;2.23;;;1.77;;
6955;SDS011;50345;51.136;16.886;2023-07-31T07:37:17;5.07;;;1.90;;
6955;SDS011;50345;51.136;16.886;2023-07-31T07:39:43;3.60;;;1.90;;
6955;SDS011;50345;51.136;16.886;2023-07-31T07:42:09;1.97;;;1.87;;
6955;SDS011;50345;51.136;16.886;2023-07-31T07:44:35;4.10;;;1.90;;
6955;SDS011;50345;51.136;16.886;2023-07-31T07:47:02;2.97;;;1.93;;
6955;SDS011;50345;51.136;16.886;2023-07-31T07:49:28;2.00;;;1.30;;
6955;SDS011;50345;51.136;16.886;2023-07-31T07:51:54;2.33;;;1.87;;
6955;SDS011;50345;51.136;16.886;2023-07-31T07:54:20;4.13;;;2.10;;
6955;SDS011;50345;51.136;16.886;2023-07-31T07:56:46;6.60;;;1.97;;
6955;SDS011;50345;51.136;16.886;2023-07-31T07:59:12;4.37;;;2.33;;
6955;SDS011;50345;51.136;16.886;2023-07-31T08:01:38;2.13;;;1.83;;
6955;SDS011;50345;51.136;16.886;2023-07-31T08:04:04;4.10;;;1.87;;
6955;SDS011;50345;51.136;16.886;2023-07-31T08:06:30;4.30;;;1.87;;
6955;SDS011;50345;51.136;16.886;2023-07-31T08:08:56;5.00;;;1.80;;
6955;SDS011;50345;51.136;16.886;2023-07-31T08:11:22;3.07;;;1.77;;
6955;SDS011;50345;51.136;16.886;2023-07-31T08:13:49;4.00;;;2.07;;
6955;SDS011;50345;51.136;16.886;2023-07-31T08:16:15;3.07;;;2.13;;
6955;SDS011;50345;51.136;16.886;2023-07-31T08:18:41;2.03;;;1.60;;
6955;SDS011;50345;51.136;16.886;2023-07-31T08:21:10;3.90;;;2.27;;
6955;SDS011;50345;51.136;16.886;2023-07-31T08:23:36;3.00;;;1.70;;
6955;SDS011;50345;51.136;16.886;2023-07-31T08:26:02;8.00;;;2.33;;
6955;SDS011;50345;51.136;16.886;2023-07-31T08:28:28;5.50;;;2.20;;
6955;SDS011;50345;51.136;16.886;2023-07-31T08:30:54;3.63;;;1.70;;
6955;SDS011;50345;51.136;16.886;2023-07-31T08:33:20;4.47;;;2.00;;
6955;SDS011;50345;51.136;16.886;2023-07-31T08:35:46;3.60;;;2.60;;
6955;SDS011;50345;51.136;16.886;2023-07-31T08:38:13;2.93;;;2.53;;
6955;SDS011;50345;51.136;16.886;2023-07-31T08:40:39;3.80;;;2.27;;
6955;SDS011;50345;51.136;16.886;2023-07-31T08:43:05;2.93;;;2.50;;
6955;SDS011;50345;51.136;16.886;2023-07-31T08:45:31;5.63;;;2.30;;
6955;SDS011;50345;51.136;16.886;2023-07-31T08:47:58;2.70;;;1.90;;
6955;SDS011;50345;51.136;16.886;2023-07-31T08:50:24;5.83;;;2.17;;
6955;SDS011;50345;51.136;16.886;2023-07-31T08:52:51;2.53;;;1.80;;
6955;SDS011;50345;51.136;16.886;2023-07-31T08:55:18;2.40;;;2.20;;
6955;SDS011;50345;51.136;16.886;2023-07-31T08:57:50;4.97;;;2.03;;
6955;SDS011;50345;51.136;16.886;2023-07-31T09:00:18;2.47;;;1.70;;
6955;SDS011;50345;51.136;16.886;2023-07-31T09:05:11;3.20;;;2.50;;
6955;SDS011;50345;51.136;16.886;2023-07-31T09:07:37;4.60;;;2.93;;
6955;SDS011;50345;51.136;16.886;2023-07-31T09:10:04;2.57;;;2.37;;
6955;SDS011;50345;51.136;16.886;2023-07-31T09:12:30;3.40;;;2.13;;
6955;SDS011;50345;51.136;16.886;2023-07-31T09:14:57;5.10;;;2.43;;
6955;SDS011;50345;51.136;16.886;2023-07-31T09:17:30;2.43;;;2.10;;
6955;SDS011;50345;51.136;16.886;2023-07-31T09:19:56;3.27;;;2.73;;
6955;SDS011;50345;51.136;16.886;2023-07-31T09:22:33;3.20;;;2.50;;
6955;SDS011;50345;51.136;16.886;2023-07-31T09:30:17;5.90;;;2.93;;
6955;SDS011;50345;51.136;16.886;2023-07-31T09:32:45;3.37;;;2.77;;
6955;SDS011;50345;51.136;16.886;2023-07-31T09:40:44;5.63;;;3.47;;
6955;SDS011;50345;51.136;16.886;2023-07-31T09:43:11;5.47;;;3.10;;
6955;SDS011;50345;51.136;16.886;2023-07-31T09:45:38;5.30;;;2.73;;
6955;SDS011;50345;51.136;16.886;2023-07-31T09:48:08;3.77;;;2.60;;
6955;SDS011;50345;51.136;16.886;2023-07-31T09:50:40;3.43;;;2.83;;
6955;SDS011;50345;51.136;16.886;2023-07-31T09:53:09;4.90;;;2.70;;
6955;SDS011;50345;51.136;16.886;2023-07-31T09:55:36;3.30;;;2.53;;
6955;SDS011;50345;51.136;16.886;2023-07-31T09:58:06;5.50;;;3.00;;
6955;SDS011;50345;51.136;16.886;2023-07-31T10:00:33;4.17;;;2.33;;
6955;SDS011;50345;51.136;16.886;2023-07-31T10:03:00;2.30;;;2.10;;
6955;SDS011;50345;51.136;16.886;2023-07-31T10:05:43;3.13;;;2.23;;
6955;SDS011;50345;51.136;16.886;2023-07-31T10:08:11;6.10;;;2.23;;
6955;SDS011;50345;51.136;16.886;2023-07-31T10:10:46;4.20;;;2.60;;
6955;SDS011;50345;51.136;16.886;2023-07-31T10:13:12;1.73;;;1.60;;
6955;SDS011;50345;51.136;16.886;2023-07-31T10:15:38;3.00;;;2.50;;
6955;SDS011;50345;51.136;16.886;2023-07-31T10:18:06;5.40;;;2.77;;
6955;SDS011;50345;51.136;16.886;2023-07-31T10:20:32;3.80;;;2.50;;
6955;SDS011;50345;51.136;16.886;2023-07-31T10:22:59;6.47;;;3.50;;
6955;SDS011;50345;51.136;16.886;2023-07-31T10:25:26;4.47;;;2.30;;
6955;SDS011;50345;51.136;16.886;2023-07-31T10:27:52;3.60;;;2.20;;
6955;SDS011;50345;51.136;16.886;2023-07-31T10:30:18;4.63;;;2.47;;
6955;SDS011;50345;51.136;16.886;2023-07-31T10:32:46;2.93;;;2.70;;
6955;SDS011;50345;51.136;16.886;2023-07-31T10:35:14;1.80;;;1.70;;
6955;SDS011;50345;51.136;16.886;2023-07-31T10:37:41;2.37;;;1.60;;
6955;SDS011;50345;51.136;16.886;2023-07-31T10:40:12;3.40;;;1.83;;
6955;SDS011;50345;51.136;16.886;2023-07-31T10:45:38;7.03;;;1.90;;
6955;SDS011;50345;51.136;16.886;2023-07-31T10:48:05;6.20;;;2.00;;
6955;SDS011;50345;51.136;16.886;2023-07-31T10:50:32;2.30;;;1.63;;
6955;SDS011;50345;51.136;16.886;2023-07-31T10:52:58;7.10;;;1.70;;
6955;SDS011;50345;51.136;16.886;2023-07-31T10:58:07;2.67;;;1.90;;
6955;SDS011;50345;51.136;16.886;2023-07-31T11:00:34;2.17;;;1.80;;
6955;SDS011;50345;51.136;16.886;2023-07-31T11:03:03;2.87;;;1.90;;
6955;SDS011;50345;51.136;16.886;2023-07-31T11:05:49;4.10;;;2.13;;
6955;SDS011;50345;51.136;16.886;2023-07-31T11:08:29;8.43;;;2.10;;
6955;SDS011;50345;51.136;16.886;2023-07-31T11:13:27;3.10;;;1.97;;
6955;SDS011;50345;51.136;16.886;2023-07-31T11:16:00;2.73;;;2.00;;
6955;SDS011;50345;51.136;16.886;2023-07-31T11:18:37;2.90;;;2.30;;
6955;SDS011;50345;51.136;16.886;2023-07-31T11:21:06;1.80;;;1.70;;
6955;SDS011;50345;51.136;16.886;2023-07-31T11:23:36;2.70;;;2.43;;
6955;SDS011;50345;51.136;16.886;2023-07-31T11:26:05;3.60;;;2.40;;
6955;SDS011;50345;51.136;16.886;2023-07-31T11:28:32;8.47;;;2.50;;
6955;SDS011;50345;51.136;16.886;2023-07-31T11:31:03;2.03;;;1.93;;
6955;SDS011;50345;51.136;16.886;2023-07-31T11:33:29;4.17;;;2.50;;
6955;SDS011;50345;51.136;16.886;2023-07-31T11:35:56;1.80;;;1.70;;
6955;SDS011;50345;51.136;16.886;2023-07-31T11:38:26;3.33;;;2.33;;
6955;SDS011;50345;51.136;16.886;2023-07-31T11:40:53;3.20;;;2.57;;
6955;SDS011;50345;51.136;16.886;2023-07-31T11:43:19;3.33;;;3.00;;
6955;SDS011;50345;51.136;16.886;2023-07-31T11:45:49;3.37;;;2.30;;
6955;SDS011;50345;51.136;16.886;2023-07-31T11:48:19;2.43;;;2.13;;
6955;SDS011;50345;51.136;16.886;2023-07-31T11:50:46;3.50;;;2.57;;
6955;SDS011;50345;51.136;16.886;2023-07-31T11:53:12;2.70;;;2.17;;
6955;SDS011;50345;51.136;16.886;2023-07-31T11:55:39;4.93;;;2.13;;
6955;SDS011;50345;51.136;16.886;2023-07-31T11:58:05;3.40;;;2.50;;
6955;SDS011;50345;51.136;16.886;2023-07-31T12:00:31;2.60;;;2.03;;
6955;SDS011;50345;51.136;16.886;2023-07-31T12:02:57;2.90;;;2.37;;
6955;SDS011;50345;51.136;16.886;2023-07-31T12:05:24;3.57;;;2.57;;
6955;SDS011;50345;51.136;16.886;2023-07-31T12:07:50;3.60;;;2.40;;
6955;SDS011;50345;51.136;16.886;2023-07-31T12:10:27;4.67;;;2.60;;
6955;SDS011;50345;51.136;16.886;2023-07-31T12:13:01;4.60;;;3.60;;
6955;SDS011;50345;51.136;16.886;2023-07-31T12:15:33;2.90;;;2.07;;
6955;SDS011;50345;51.136;16.886;2023-07-31T12:18:11;3.60;;;2.30;;
6955;SDS011;50345;51.136;16.886;2023-07-31T12:20:43;2.87;;;2.30;;
6955;SDS011;50345;51.136;16.886;2023-07-31T12:23:29;5.80;;;2.60;;
6955;SDS011;50345;51.136;16.886;2023-07-31T12:31:15;7.93;;;2.60;;
6955;SDS011;50345;51.136;16.886;2023-07-31T12:33:42;3.80;;;2.87;;
6955;SDS011;50345;51.136;16.886;2023-07-31T12:36:09;4.10;;;3.03;;
6955;SDS011;50345;51.136;16.886;2023-07-31T12:38:35;4.83;;;2.13;;
6955;SDS011;50345;51.136;16.886;2023-07-31T12:41:01;7.23;;;2.50;;
6955;SDS011;50345;51.136;16.886;2023-07-31T12:43:28;3.00;;;2.80;;
6955;SDS011;50345;51.136;16.886;2023-07-31T12:45:54;3.10;;;2.63;;
6955;SDS011;50345;51.136;16.886;2023-07-31T12:48:21;2.63;;;1.90;;
6955;SDS011;50345;51.136;16.886;2023-07-31T12:50:47;3.30;;;2.77;;
6955;SDS011;50345;51.136;16.886;2023-07-31T12:53:15;2.60;;;2.40;;
6955;SDS011;50345;51.136;16.886;2023-07-31T12:55:41;2.70;;;2.50;;
6955;SDS011;50345;51.136;16.886;2023-07-31T12:58:07;3.30;;;2.83;;
6955;SDS011;50345;51.136;16.886;2023-07-31T13:00:33;3.37;;;2.43;;
6955;SDS011;50345;51.136;16.886;2023-07-31T13:02:59;2.63;;;2.43;;
6955;SDS011;50345;51.136;16.886;2023-07-31T13:05:26;9.00;;;3.37;;
6955;SDS011;50345;51.136;16.886;2023-07-31T13:07:52;2.97;;;2.30;;
6955;SDS011;50345;51.136;16.886;2023-07-31T13:10:19;2.40;;;2.30;;
6955;SDS011;50345;51.136;16.886;2023-07-31T13:12:45;3.63;;;3.00;;
6955;SDS011;50345;51.136;16.886;2023-07-31T13:15:11;3.67;;;2.67;;
6955;SDS011;50345;51.136;16.886;2023-07-31T13:17:40;3.20;;;2.90;;
6955;SDS011;50345;51.136;16.886;2023-07-31T13:20:10;4.50;;;3.10;;
6955;SDS011;50345;51.136;16.886;2023-07-31T13:22:39;4.33;;;2.87;;
6955;SDS011;50345;51.136;16.886;2023-07-31T13:25:12;3.47;;;3.00;;
6955;SDS011;50345;51.136;16.886;2023-07-31T13:27:39;3.47;;;2.47;;
6955;SDS011;50345;51.136;16.886;2023-07-31T13:30:05;3.70;;;3.10;;
6955;SDS011;50345;51.136;16.886;2023-07-31T13:32:31;2.30;;;2.20;;
6955;SDS011;50345;51.136;16.886;2023-07-31T13:34:57;3.10;;;2.80;;
6955;SDS011;50345;51.136;16.886;2023-07-31T13:37:24;3.20;;;2.80;;
6955;SDS011;50345;51.136;16.886;2023-07-31T13:39:50;3.33;;;3.07;;
6955;SDS011;50345;51.136;16.886;2023-07-31T13:42:16;3.70;;;3.00;;
6955;SDS011;50345;51.136;16.886;2023-07-31T13:44:42;3.30;;;3.00;;
6955;SDS011;50345;51.136;16.886;2023-07-31T13:47:08;3.90;;;3.10;;
6955;SDS011;50345;51.136;16.886;2023-07-31T13:49:35;4.30;;;3.20;;
6955;SDS011;50345;51.136;16.886;2023-07-31T13:52:01;6.80;;;3.97;;
6955;SDS011;50345;51.136;16.886;2023-07-31T13:54:27;3.43;;;3.13;;
6955;SDS011;50345;51.136;16.886;2023-07-31T13:56:53;6.63;;;4.33;;
6955;SDS011;50345;51.136;16.886;2023-07-31T13:59:20;3.50;;;3.20;;
6955;SDS011;50345;51.136;16.886;2023-07-31T14:01:46;6.33;;;3.60;;
6955;SDS011;50345;51.136;16.886;2023-07-31T14:04:12;6.43;;;3.30;;
6955;SDS011;50345;51.136;16.886;2023-07-31T14:06:38;4.93;;;3.40;;
6955;SDS011;50345;51.136;16.886;2023-07-31T14:09:05;4.40;;;3.20;;
6955;SDS011;50345;51.136;16.886;2023-07-31T14:11:31;3.70;;;3.10;;
6955;SDS011;50345;51.136;16.886;2023-07-31T14:13:57;5.13;;;3.40;;
6955;SDS011;50345;51.136;16.886;2023-07-31T14:16:23;6.73;;;3.60;;
6955;SDS011;50345;51.136;16.886;2023-07-31T14:18:49;2.90;;;2.47;;
6955;SDS011;50345;51.136;16.886;2023-07-31T14:21:15;2.60;;;2.40;;
6955;SDS011;50345;51.136;16.886;2023-07-31T14:23:44;3.53;;;2.77;;
6955;SDS011;50345;51.136;16.886;2023-07-31T14:26:10;2.47;;;1.90;;
6955;SDS011;50345;51.136;16.886;2023-07-31T14:28:36;3.23;;;2.50;;
6955;SDS011;50345;51.136;16.886;2023-07-31T14:31:02;15.00;;;2.80;;
6955;SDS011;50345;51.136;16.886;2023-07-31T14:33:28;1.90;;;1.80;;
6955;SDS011;50345;51.136;16.886;2023-07-31T14:35:54;5.43;;;2.13;;
6955;SDS011;50345;51.136;16.886;2023-07-31T14:38:20;4.47;;;2.17;;
6955;SDS011;50345;51.136;16.886;2023-07-31T14:40:46;4.37;;;3.33;;
6955;SDS011;50345;51.136;16.886;2023-07-31T14:43:12;2.67;;;2.43;;
6955;SDS011;50345;51.136;16.886;2023-07-31T14:45:38;3.53;;;2.13;;
6955;SDS011;50345;51.136;16.886;2023-07-31T14:48:04;3.47;;;2.47;;
6955;SDS011;50345;51.136;16.886;2023-07-31T14:50:30;2.10;;;2.00;;
6955;SDS011;50345;51.136;16.886;2023-07-31T14:52:56;2.83;;;1.90;;
6955;SDS011;50345;51.136;16.886;2023-07-31T14:55:22;3.40;;;2.60;;
6955;SDS011;50345;51.136;16.886;2023-07-31T14:57:49;2.30;;;2.20;;
6955;SDS011;50345;51.136;16.886;2023-07-31T15:00:15;2.60;;;2.40;;
6955;SDS011;50345;51.136;16.886;2023-07-31T15:02:41;2.83;;;2.43;;
6955;SDS011;50345;51.136;16.886;2023-07-31T15:05:07;2.70;;;2.00;;
6955;SDS011;50345;51.136;16.886;2023-07-31T15:07:33;2.90;;;2.30;;
6955;SDS011;50345;51.136;16.886;2023-07-31T15:10:01;2.40;;;2.10;;
6955;SDS011;50345;51.136;16.886;2023-07-31T15:12:27;4.33;;;2.27;;
6955;SDS011;50345;51.136;16.886;2023-07-31T15:14:53;2.30;;;2.07;;
6955;SDS011;50345;51.136;16.886;2023-07-31T15:17:19;2.20;;;2.00;;